Time;durP1;ratioP1;P1;durP2;ratioP2;P2;SDS_P1;SDS_P2;PMS_P1;PMS_P2;Temp;Humidity;BMP_temperature;BMP_pressure;BME280_temperature;BME280_humidity;BME280_pressure;Samples;Min_cycle;Max_cycle;Signal;HPM_P1;HPM_P2
2021/04/30 00:00:53;;;;;;;25.10;21.73;;;6.40;99.90;;;;;;5017313;28;20392;-60
2021/04/30 00:03:19;;;;;;;23.75;20.85;;;6.40;99.90;;;;;;5018516;28;20559;-60
2021/04/30 00:05:46;;;;;;;22.70;20.27;;;6.40;99.90;;;;;;5018989;28;20429;-60
2021/04/30 00:08:12;;;;;;;25.92;20.67;;;6.40;99.90;;;;;;5017609;28;20358;-60
2021/04/30 00:10:39;;;;;;;27.30;21.85;;;6.40;99.90;;;;;;5018428;28;20109;-58
2021/04/30 00:13:06;;;;;;;26.02;21.48;;;6.40;99.90;;;;;;5018586;28;20491;-60
2021/04/30 00:15:32;;;;;;;25.98;22.08;;;6.50;99.90;;;;;;5018512;28;20500;-59
2021/04/30 00:18:03;;;;;;;27.77;22.27;;;6.50;99.90;;;;;;5018346;28;20037;-59
2021/04/30 00:20:29;;;;;;;27.73;22.70;;;6.50;99.90;;;;;;5017900;28;20033;-61
2021/04/30 00:22:54;;;;;;;26.17;22.55;;;6.50;99.90;;;;;;5017792;28;20104;-60
2021/04/30 00:25:20;;;;;;;28.08;22.35;;;6.50;99.90;;;;;;5018410;28;20021;-60
2021/04/30 00:27:45;;;;;;;28.92;23.38;;;6.50;99.90;;;;;;5018637;28;20024;-60
2021/04/30 00:30:13;;;;;;;27.30;22.90;;;6.40;99.90;;;;;;5017924;28;20036;-59
2021/04/30 00:32:38;;;;;;;33.75;26.40;;;6.50;99.90;;;;;;5017788;28;20132;-60
2021/04/30 00:35:04;;;;;;;28.27;24.20;;;6.50;99.90;;;;;;5017592;28;20018;-58
2021/04/30 00:37:30;;;;;;;29.90;24.48;;;6.50;99.90;;;;;;5017321;28;20095;-60
2021/04/30 00:39:56;;;;;;;26.15;22.65;;;6.50;99.90;;;;;;5017199;28;20430;-61
2021/04/30 00:42:21;;;;;;;27.02;23.25;;;6.50;99.90;;;;;;5018260;28;20022;-61
2021/04/30 00:44:47;;;;;;;27.42;22.98;;;6.50;99.90;;;;;;5018826;28;20021;-61
2021/04/30 00:47:39;;;;;;;29.17;24.48;;;6.50;99.90;;;;;;5017816;28;20485;-60
2021/04/30 00:50:08;;;;;;;24.98;21.83;;;6.50;99.90;;;;;;5015684;28;20041;-60
2021/04/30 00:52:37;;;;;;;30.48;23.73;;;6.50;99.90;;;;;;5018395;28;20056;-61
2021/04/30 00:55:08;;;;;;;30.40;23.15;;;6.50;99.90;;;;;;5015452;28;20066;-60
2021/04/30 00:57:35;;;;;;;30.83;23.58;;;6.60;99.90;;;;;;5017914;28;20036;-60
2021/04/30 01:00:02;;;;;;;27.70;23.52;;;6.60;99.90;;;;;;5015151;28;20072;-59
2021/04/30 01:02:27;;;;;;;31.10;24.30;;;6.50;99.90;;;;;;5016385;28;20033;-60
2021/04/30 01:04:53;;;;;;;30.52;24.58;;;6.50;99.90;;;;;;5016907;28;20040;-59
2021/04/30 01:07:19;;;;;;;29.60;24.80;;;6.50;99.90;;;;;;5017103;28;20056;-60
2021/04/30 01:09:45;;;;;;;29.85;25.58;;;6.60;99.90;;;;;;5016010;28;20068;-60
2021/04/30 01:12:11;;;;;;;27.98;23.17;;;6.60;99.90;;;;;;5017571;28;20041;-61
2021/04/30 01:14:37;;;;;;;31.80;23.98;;;6.60;99.90;;;;;;5017745;28;20032;-61
2021/04/30 01:17:03;;;;;;;32.90;23.92;;;6.60;99.90;;;;;;5017851;28;20040;-61
2021/04/30 01:19:30;;;;;;;29.67;24.85;;;6.60;99.90;;;;;;5015478;28;20034;-60
2021/04/30 01:21:56;;;;;;;32.72;24.50;;;6.60;99.90;;;;;;5017578;28;20036;-60
2021/04/30 01:24:24;;;;;;;28.00;23.17;;;6.60;99.90;;;;;;5018112;28;20029;-60
2021/04/30 01:26:50;;;;;;;28.35;23.58;;;6.60;99.90;;;;;;5017659;28;20083;-60
2021/04/30 01:29:16;;;;;;;29.98;24.15;;;6.60;99.90;;;;;;5017480;28;20039;-61
2021/04/30 01:31:43;;;;;;;33.72;24.77;;;6.60;99.90;;;;;;5017318;28;20029;-58
2021/04/30 01:34:09;;;;;;;30.45;24.52;;;6.60;99.90;;;;;;5016318;28;20072;-59
2021/04/30 01:36:34;;;;;;;32.90;24.42;;;6.60;99.90;;;;;;5017572;28;20032;-60
2021/04/30 01:39:02;;;;;;;26.52;22.40;;;6.60;99.90;;;;;;5017861;28;20025;-61
2021/04/30 01:41:28;;;;;;;31.40;24.42;;;6.60;99.90;;;;;;5018715;28;20075;-60
2021/04/30 01:43:54;;;;;;;30.10;23.48;;;6.60;99.90;;;;;;5018290;28;20033;-60
2021/04/30 01:46:20;;;;;;;28.77;23.13;;;6.60;99.90;;;;;;5021766;28;20022;-60
2021/04/30 01:48:45;;;;;;;31.40;25.58;;;6.60;99.90;;;;;;5021156;28;20037;-60
2021/04/30 01:51:11;;;;;;;29.33;24.30;;;6.60;99.90;;;;;;5021081;28;20030;-60
2021/04/30 01:53:38;;;;;;;30.15;23.40;;;6.60;99.90;;;;;;5021510;28;20032;-61
2021/04/30 01:56:06;;;;;;;28.55;25.00;;;6.60;99.90;;;;;;5021514;28;20026;-59
2021/04/30 01:58:32;;;;;;;29.40;24.65;;;6.60;99.90;;;;;;5021293;28;20038;-59
2021/04/30 02:00:58;;;;;;;26.05;23.27;;;6.60;99.90;;;;;;5019747;28;20543;-60
2021/04/30 02:03:24;;;;;;;28.05;24.45;;;6.60;99.90;;;;;;5020869;28;20029;-60
2021/04/30 02:05:50;;;;;;;32.28;23.88;;;6.60;99.90;;;;;;5021300;28;20051;-60
2021/04/30 02:08:16;;;;;;;33.13;26.17;;;6.60;99.90;;;;;;5021099;28;20018;-60
2021/04/30 02:10:44;;;;;;;29.88;24.30;;;6.60;99.90;;;;;;5020051;28;20395;-59
2021/04/30 02:13:10;;;;;;;30.80;24.55;;;6.60;99.90;;;;;;5021464;28;20427;-60
2021/04/30 02:15:38;;;;;;;28.13;24.02;;;6.60;99.90;;;;;;5021736;28;20018;-59
2021/04/30 02:18:04;;;;;;;31.48;23.67;;;6.60;99.90;;;;;;5020972;28;20051;-60
2021/04/30 02:20:30;;;;;;;29.73;24.58;;;6.60;99.90;;;;;;5020679;28;20065;-60
2021/04/30 02:22:56;;;;;;;29.35;25.35;;;6.60;99.90;;;;;;5020403;28;20029;-60
2021/04/30 02:25:22;;;;;;;27.42;23.80;;;6.60;99.90;;;;;;5020345;28;20037;-61
2021/04/30 02:27:51;;;;;;;29.25;23.70;;;6.60;99.90;;;;;;5021450;28;20144;-61
2021/04/30 02:30:18;;;;;;;29.65;24.63;;;6.60;99.90;;;;;;5020302;28;20025;-59
2021/04/30 02:32:45;;;;;;;30.70;24.77;;;6.60;99.90;;;;;;5020753;28;20022;-61
2021/04/30 02:35:30;;;;;;;30.88;23.60;;;6.60;99.90;;;;;;5020867;28;20640;-59
2021/04/30 02:37:56;;;;;;;31.13;23.88;;;6.60;99.90;;;;;;5021143;28;20018;-59
2021/04/30 02:40:26;;;;;;;31.65;22.67;;;6.60;99.90;;;;;;5020463;28;20553;-60
2021/04/30 02:42:57;;;;;;;26.98;23.40;;;6.60;99.90;;;;;;5020143;28;20431;-61
2021/04/30 02:45:23;;;;;;;24.48;20.90;;;6.60;99.90;;;;;;5020689;28;20063;-60
2021/04/30 02:47:51;;;;;;;26.73;21.27;;;6.60;99.90;;;;;;5020342;28;20104;-60
2021/04/30 02:50:19;;;;;;;27.08;20.55;;;6.60;99.90;;;;;;5020032;28;20058;-60
2021/04/30 02:52:46;;;;;;;24.17;21.58;;;6.60;99.90;;;;;;5020853;28;20021;-60
2021/04/30 02:55:15;;;;;;;25.48;21.42;;;6.60;99.90;;;;;;5019817;28;20095;-60
2021/04/30 02:57:40;;;;;;;27.25;22.02;;;6.60;99.90;;;;;;5021483;28;20026;-60
2021/04/30 03:00:08;;;;;;;28.48;22.23;;;6.60;99.90;;;;;;5019997;28;20052;-60
2021/04/30 03:02:34;;;;;;;26.35;21.42;;;6.60;99.90;;;;;;5020278;28;20025;-61
2021/04/30 03:04:59;;;;;;;25.88;20.35;;;6.60;99.90;;;;;;5019321;28;20029;-60
2021/04/30 03:07:25;;;;;;;26.90;21.58;;;6.60;99.90;;;;;;5020110;28;20084;-60
2021/04/30 03:09:51;;;;;;;25.50;21.08;;;6.60;99.90;;;;;;5020290;28;20079;-59
2021/04/30 03:12:17;;;;;;;23.60;20.15;;;6.60;99.90;;;;;;5020627;28;20105;-59
2021/04/30 03:14:42;;;;;;;25.15;20.85;;;6.60;99.90;;;;;;5020168;28;20039;-60
2021/04/30 03:17:08;;;;;;;24.10;21.50;;;6.60;99.90;;;;;;5019584;28;20094;-61
2021/04/30 03:19:33;;;;;;;28.65;20.02;;;6.60;99.90;;;;;;5019822;28;20662;-58
2021/04/30 03:21:59;;;;;;;25.48;20.65;;;6.60;99.90;;;;;;5020262;28;20022;-60
2021/04/30 03:24:25;;;;;;;27.13;20.85;;;6.60;99.90;;;;;;5019739;28;20108;-60
2021/04/30 03:26:50;;;;;;;22.73;19.20;;;6.50;99.90;;;;;;5019502;28;20030;-59
2021/04/30 03:29:16;;;;;;;22.45;19.15;;;6.60;99.90;;;;;;5018982;28;20021;-59
2021/04/30 03:31:41;;;;;;;24.13;20.23;;;6.60;99.90;;;;;;5020239;28;20030;-59
2021/04/30 03:34:07;;;;;;;23.40;19.77;;;6.60;99.90;;;;;;5019450;28;20053;-60
2021/04/30 03:36:34;;;;;;;24.02;19.33;;;6.60;99.90;;;;;;5019434;28;20043;-58
2021/04/30 03:39:02;;;;;;;23.33;19.63;;;6.60;99.90;;;;;;5019609;28;20025;-59
2021/04/30 03:41:29;;;;;;;22.88;20.05;;;6.50;99.90;;;;;;5019744;28;20022;-60
2021/04/30 03:43:55;;;;;;;25.75;20.70;;;6.60;99.90;;;;;;5018002;28;20028;-60
2021/04/30 03:46:20;;;;;;;22.33;19.30;;;6.50;99.90;;;;;;5019440;28;20113;-60
2021/04/30 03:48:46;;;;;;;21.90;19.60;;;6.50;99.90;;;;;;5019741;28;20104;-60
2021/04/30 03:51:11;;;;;;;22.85;19.00;;;6.50;99.90;;;;;;5019020;28;20373;-59
2021/04/30 03:53:37;;;;;;;25.83;20.85;;;6.60;99.90;;;;;;5019026;28;20133;-61
2021/04/30 03:56:03;;;;;;;24.27;19.55;;;6.60;99.90;;;;;;5019307;28;20584;-60
2021/04/30 03:58:28;;;;;;;23.52;20.05;;;6.60;99.90;;;;;;5018929;28;20029;-61
2021/04/30 04:00:54;;;;;;;27.23;20.90;;;6.60;99.90;;;;;;5019271;28;20097;-60
2021/04/30 04:03:20;;;;;;;22.40;19.85;;;6.50;99.90;;;;;;5018975;28;20049;-60
2021/04/30 04:05:45;;;;;;;23.92;19.20;;;6.50;99.90;;;;;;5018852;28;20447;-60
2021/04/30 04:08:11;;;;;;;22.63;19.10;;;6.60;99.90;;;;;;5017349;28;20031;-60
2021/04/30 04:10:37;;;;;;;23.48;20.23;;;6.60;99.90;;;;;;5018113;28;20037;-60
2021/04/30 04:13:21;;;;;;;23.23;19.75;;;6.60;99.90;;;;;;5018356;28;20018;-60
2021/04/30 04:15:48;;;;;;;23.23;19.95;;;6.50;99.90;;;;;;5018815;28;20446;-60
2021/04/30 04:18:14;;;;;;;23.73;20.20;;;6.60;99.90;;;;;;5018109;28;20521;-59
2021/04/30 04:20:40;;;;;;;27.80;21.38;;;6.60;99.90;;;;;;5018623;28;20017;-59
2021/04/30 04:23:06;;;;;;;24.80;21.42;;;6.60;99.90;;;;;;5018557;28;20031;-59
2021/04/30 04:25:33;;;;;;;25.40;20.63;;;6.60;99.90;;;;;;5018026;28;20900;-60
2021/04/30 04:27:58;;;;;;;25.08;22.13;;;6.60;99.90;;;;;;5018416;28;20514;-61
2021/04/30 04:30:25;;;;;;;27.10;23.13;;;6.60;99.90;;;;;;5017968;28;20018;-60
2021/04/30 04:32:51;;;;;;;25.98;22.10;;;6.60;99.90;;;;;;5018105;28;20021;-60
2021/04/30 04:35:17;;;;;;;26.23;22.98;;;6.60;99.90;;;;;;5017835;28;20121;-59
2021/04/30 04:37:44;;;;;;;28.08;23.83;;;6.60;99.90;;;;;;5018176;28;20113;-60
2021/04/30 04:40:10;;;;;;;24.95;22.13;;;6.60;99.90;;;;;;5018015;28;20091;-60
2021/04/30 04:42:36;;;;;;;28.77;23.35;;;6.50;99.90;;;;;;5018083;28;20026;-59
2021/04/30 04:45:02;;;;;;;27.00;23.58;;;6.50;99.90;;;;;;5017675;28;20055;-60
2021/04/30 04:47:28;;;;;;;26.75;23.85;;;6.50;99.90;;;;;;5018139;28;20025;-59
2021/04/30 04:49:53;;;;;;;28.27;23.52;;;6.50;99.90;;;;;;5018018;28;20026;-60
2021/04/30 04:52:19;;;;;;;29.35;24.67;;;6.50;99.90;;;;;;5017988;28;20021;-60
2021/04/30 04:54:45;;;;;;;27.50;23.13;;;6.50;99.90;;;;;;5017754;28;20061;-59
2021/04/30 04:57:10;;;;;;;27.80;23.77;;;6.50;99.90;;;;;;5016809;28;20391;-59
2021/04/30 04:59:36;;;;;;;30.95;24.42;;;6.50;99.90;;;;;;5017495;28;20029;-60
2021/04/30 05:02:01;;;;;;;29.52;24.17;;;6.50;99.90;;;;;;5017614;28;20057;-60
2021/04/30 05:04:27;;;;;;;30.45;24.15;;;6.50;99.90;;;;;;5018168;28;20083;-59
2021/04/30 05:06:52;;;;;;;30.00;24.33;;;6.50;99.90;;;;;;5018863;28;20138;-60
2021/04/30 05:09:18;;;;;;;30.13;24.40;;;6.50;99.90;;;;;;5016729;28;20022;-60
2021/04/30 05:11:44;;;;;;;28.35;23.10;;;6.50;99.90;;;;;;5018073;28;20030;-58
2021/04/30 05:14:09;;;;;;;28.65;24.15;;;6.60;99.90;;;;;;5018384;28;20331;-60
2021/04/30 05:16:35;;;;;;;30.48;24.88;;;6.60;99.90;;;;;;5017842;28;20519;-58
2021/04/30 05:19:00;;;;;;;27.15;23.30;;;6.60;99.90;;;;;;5019275;28;20395;-58
2021/04/30 05:21:26;;;;;;;27.98;23.70;;;6.60;99.90;;;;;;5021799;28;20018;-59
2021/04/30 05:23:57;;;;;;;28.20;24.38;;;6.70;99.90;;;;;;5024983;28;20087;-58
2021/04/30 05:26:22;;;;;;;30.17;25.13;;;6.70;99.90;;;;;;5020972;28;20018;-59
2021/04/30 05:28:48;;;;;;;29.77;25.40;;;6.60;99.90;;;;;;5021749;28;20026;-60
2021/04/30 05:31:13;;;;;;;26.77;23.45;;;6.70;99.90;;;;;;5023284;28;20057;-59
2021/04/30 05:33:39;;;;;;;29.13;24.58;;;6.70;99.90;;;;;;5021114;28;20510;-59
2021/04/30 05:36:05;;;;;;;28.05;23.73;;;6.80;99.90;;;;;;5019979;28;20109;-60
2021/04/30 05:38:30;;;;;;;26.75;23.02;;;6.80;99.90;;;;;;5022083;28;20049;-59
2021/04/30 05:40:56;;;;;;;27.35;22.73;;;6.80;99.90;;;;;;5020827;28;20108;-60
2021/04/30 05:43:21;;;;;;;28.52;23.17;;;6.80;99.90;;;;;;5022997;28;20022;-60
2021/04/30 05:45:47;;;;;;;27.35;23.73;;;6.80;99.90;;;;;;5021929;28;20084;-66
2021/04/30 05:48:13;;;;;;;25.80;23.00;;;6.90;99.90;;;;;;5021877;28;20026;-61
2021/04/30 05:50:38;;;;;;;27.05;22.70;;;7.00;99.90;;;;;;5021524;28;20026;-60
2021/04/30 05:53:04;;;;;;;28.88;24.27;;;7.00;99.90;;;;;;5020498;28;20032;-60
2021/04/30 05:55:30;;;;;;;28.23;24.60;;;7.10;99.90;;;;;;5022064;28;20108;-59
2021/04/30 05:57:56;;;;;;;28.83;23.70;;;7.10;99.90;;;;;;5021535;28;20030;-60
2021/04/30 06:00:22;;;;;;;25.27;22.58;;;7.10;99.90;;;;;;5021645;28;20041;-60
2021/04/30 06:02:47;;;;;;;30.67;23.52;;;7.00;99.90;;;;;;5021873;28;20110;-57
2021/04/30 06:05:13;;;;;;;27.70;23.40;;;7.10;99.90;;;;;;5020820;28;20060;-60
2021/04/30 06:07:39;;;;;;;28.17;24.33;;;7.20;99.90;;;;;;5020539;28;20037;-59
2021/04/30 06:10:06;;;;;;;28.63;24.33;;;7.20;99.90;;;;;;5020837;28;20021;-59
2021/04/30 06:12:32;;;;;;;24.20;21.73;;;7.30;99.90;;;;;;5021469;28;20455;-60
2021/04/30 06:14:58;;;;;;;25.65;21.35;;;7.30;99.90;;;;;;5020841;28;20128;-60
2021/04/30 06:17:24;;;;;;;26.17;22.98;;;7.40;99.90;;;;;;5021147;28;20014;-59
2021/04/30 06:19:50;;;;;;;25.13;21.65;;;7.30;99.90;;;;;;5018709;28;20060;-60
2021/04/30 06:22:16;;;;;;;24.05;20.35;;;7.40;99.90;;;;;;5021445;28;20757;-59
2021/04/30 06:24:41;;;;;;;23.25;20.60;;;7.50;99.90;;;;;;5022127;28;20079;-60
2021/04/30 06:27:08;;;;;;;24.55;21.98;;;7.60;99.90;;;;;;5021489;28;20026;-60
2021/04/30 06:29:34;;;;;;;23.55;20.23;;;7.60;99.90;;;;;;5020323;28;20029;-60
2021/04/30 06:31:59;;;;;;;22.67;19.85;;;7.80;99.90;;;;;;5022599;28;20029;-58
2021/04/30 06:34:25;;;;;;;22.45;19.60;;;8.10;99.90;;;;;;5019386;28;20061;-60
2021/04/30 06:36:53;;;;;;;20.70;18.52;;;8.30;99.90;;;;;;5021027;28;20018;-58
2021/04/30 06:39:21;;;;;;;21.25;17.88;;;8.50;99.90;;;;;;5020874;28;20580;-56
2021/04/30 06:41:47;;;;;;;19.77;17.30;;;8.70;99.90;;;;;;5020084;28;20058;-58
2021/04/30 06:44:13;;;;;;;18.67;16.02;;;8.70;99.90;;;;;;5020243;28;20511;-60
2021/04/30 06:46:39;;;;;;;17.50;15.68;;;8.70;99.90;;;;;;5020010;28;20109;-59
2021/04/30 06:49:04;;;;;;;19.73;16.23;;;8.70;99.90;;;;;;5019703;28;20029;-59
2021/04/30 06:51:30;;;;;;;21.60;16.27;;;8.80;99.90;;;;;;5019959;28;20108;-58
2021/04/30 06:53:56;;;;;;;16.90;15.25;;;8.90;99.90;;;;;;5020408;28;20153;-59
2021/04/30 06:56:25;;;;;;;18.63;15.90;;;9.00;99.90;;;;;;5019309;28;20573;-60
2021/04/30 06:58:50;;;;;;;16.92;15.13;;;9.10;99.90;;;;;;5018586;28;20010;-60
2021/04/30 07:01:16;;;;;;;16.75;15.10;;;9.10;99.90;;;;;;5017881;28;20033;-59
2021/04/30 07:03:42;;;;;;;16.20;14.10;;;9.10;99.90;;;;;;5018095;28;20030;-60
2021/04/30 07:06:08;;;;;;;16.63;14.45;;;9.00;99.90;;;;;;5021590;28;20021;-59
2021/04/30 07:08:33;;;;;;;15.13;13.57;;;9.00;99.90;;;;;;5019448;28;20522;-60
2021/04/30 07:11:00;;;;;;;16.08;14.40;;;8.90;99.90;;;;;;5023998;22;20057;-56
2021/04/30 07:13:26;;;;;;;15.77;14.10;;;8.90;99.90;;;;;;5004144;28;20018;-56
2021/04/30 07:15:52;;;;;;;14.98;13.45;;;8.90;99.90;;;;;;5006436;28;20381;-57
2021/04/30 07:18:17;;;;;;;16.45;14.73;;;8.90;99.90;;;;;;5005530;28;20048;-55
2021/04/30 07:20:45;;;;;;;15.18;13.57;;;8.90;99.90;;;;;;5004337;28;20037;-56
2021/04/30 07:23:11;;;;;;;14.50;13.05;;;8.90;99.90;;;;;;5019946;28;20029;-52
2021/04/30 07:25:36;;;;;;;15.50;13.65;;;8.90;99.90;;;;;;5009102;28;20052;-57
2021/04/30 07:28:02;;;;;;;16.90;14.18;;;8.80;99.90;;;;;;5008394;28;20013;-55
2021/04/30 07:30:28;;;;;;;15.68;14.07;;;8.70;99.90;;;;;;5008110;28;20037;-51
2021/04/30 07:32:53;;;;;;;17.02;14.45;;;8.50;99.90;;;;;;5008137;28;20014;-55
2021/04/30 07:35:19;;;;;;;15.15;13.23;;;8.40;99.90;;;;;;5008015;28;20028;-52
2021/04/30 07:37:45;;;;;;;16.00;13.80;;;8.40;99.90;;;;;;5006828;28;20056;-55
2021/04/30 07:40:11;;;;;;;14.40;12.68;;;8.40;99.90;;;;;;5006866;28;20037;-53
2021/04/30 07:42:37;;;;;;;14.52;12.95;;;8.40;99.90;;;;;;5003627;28;20378;-54
2021/04/30 07:45:04;;;;;;;16.25;13.30;;;8.40;99.90;;;;;;5004544;28;20548;-53
2021/04/30 07:47:30;;;;;;;14.93;13.43;;;8.40;99.90;;;;;;5006899;28;20623;-54
2021/04/30 07:49:56;;;;;;;14.18;12.52;;;8.50;99.90;;;;;;5004147;28;20091;-49
2021/04/30 07:52:22;;;;;;;14.18;12.07;;;8.60;99.90;;;;;;5003840;28;20025;-55
2021/04/30 07:54:48;;;;;;;13.52;11.98;;;8.70;99.90;;;;;;5008085;28;20057;-57
2021/04/30 07:57:14;;;;;;;14.15;12.73;;;8.80;99.90;;;;;;5008278;28;20049;-55
2021/04/30 07:59:39;;;;;;;13.57;11.70;;;8.90;99.90;;;;;;5007869;28;20026;-52
2021/04/30 08:02:05;;;;;;;16.00;12.43;;;8.90;99.90;;;;;;5007412;28;20072;-52
2021/04/30 08:04:31;;;;;;;14.85;12.05;;;8.90;99.90;;;;;;5007334;28;20026;-54
2021/04/30 08:06:57;;;;;;;12.25;10.73;;;8.90;99.90;;;;;;5007088;28;20171;-54
2021/04/30 08:09:23;;;;;;;12.00;10.80;;;9.10;99.90;;;;;;5006037;28;21146;-50
2021/04/30 08:11:48;;;;;;;11.23;10.02;;;9.20;99.90;;;;;;5005896;28;20026;-50
2021/04/30 08:14:14;;;;;;;15.60;11.98;;;9.20;99.90;;;;;;5005101;28;20014;-55
2021/04/30 08:16:39;;;;;;;12.32;11.02;;;9.30;99.90;;;;;;5005384;28;20030;-50
2021/04/30 08:19:06;;;;;;;11.88;10.55;;;9.40;99.90;;;;;;5004696;28;20542;-54
2021/04/30 08:21:32;;;;;;;11.45;10.23;;;9.40;99.90;;;;;;5005772;28;20105;-51
2021/04/30 08:23:58;;;;;;;11.23;10.13;;;9.40;99.90;;;;;;5005132;28;20348;-55
2021/04/30 08:26:24;;;;;;;10.45;9.45;;;9.50;99.90;;;;;;5005250;28;20169;-53
2021/04/30 08:28:51;;;;;;;10.02;9.10;;;9.70;99.90;;;;;;5004060;28;20021;-51
2021/04/30 08:31:17;;;;;;;11.95;10.75;;;9.80;99.90;;;;;;5003393;28;20527;-53
2021/04/30 08:33:42;;;;;;;11.18;10.07;;;10.00;99.90;;;;;;5004333;28;20026;-53
2021/04/30 08:36:08;;;;;;;11.18;10.07;;;10.10;99.90;;;;;;5003181;28;20448;-56
2021/04/30 08:38:36;;;;;;;11.77;10.23;;;10.20;99.90;;;;;;5005831;28;20021;-50
2021/04/30 08:41:02;;;;;;;12.73;10.18;;;10.30;99.90;;;;;;5003675;28;20381;-55
2021/04/30 08:43:28;;;;;;;10.93;9.75;;;10.40;99.90;;;;;;5002864;28;20030;-53
2021/04/30 08:45:55;;;;;;;10.25;8.82;;;10.60;99.90;;;;;;5003026;28;20032;-54
2021/04/30 08:48:24;;;;;;;10.35;9.07;;;10.50;99.90;;;;;;5004422;28;20109;-50
2021/04/30 08:50:52;;;;;;;9.88;8.95;;;10.50;99.90;;;;;;5006519;28;20488;-54
2021/04/30 08:53:18;;;;;;;10.38;9.32;;;10.40;99.90;;;;;;5007792;28;20033;-53
2021/04/30 08:55:44;;;;;;;11.40;8.88;;;10.40;99.90;;;;;;5007610;28;20490;-54
2021/04/30 08:58:10;;;;;;;10.35;8.40;;;10.30;99.90;;;;;;5007839;28;20091;-51
2021/04/30 09:00:36;;;;;;;9.90;9.00;;;10.40;99.90;;;;;;5007311;28;20477;-56
2021/04/30 09:03:02;;;;;;;11.38;9.48;;;10.40;99.90;;;;;;5008197;28;20515;-55
2021/04/30 09:05:30;;;;;;;10.77;9.80;;;10.30;99.90;;;;;;5007633;28;20073;-54
2021/04/30 09:08:00;;;;;;;10.80;9.82;;;10.30;99.90;;;;;;5006511;28;20109;-51
2021/04/30 09:10:28;;;;;;;11.65;10.23;;;10.40;99.90;;;;;;5006993;28;20132;-53
2021/04/30 09:13:16;;;;;;;11.20;10.05;;;10.40;99.90;;;;;;5005270;28;20034;-55
2021/04/30 09:15:43;;;;;;;10.50;9.27;;;10.50;99.90;;;;;;5006468;28;20030;-53
2021/04/30 09:18:17;;;;;;;11.32;10.23;;;10.60;99.90;;;;;;5007130;28;20018;-55
2021/04/30 09:20:44;;;;;;;10.70;9.63;;;10.80;99.90;;;;;;5007016;28;20097;-51
2021/04/30 09:23:36;;;;;;;9.45;8.48;;;11.00;99.90;;;;;;5006923;28;20014;-53
2021/04/30 09:26:22;;;;;;;10.77;9.18;;;11.30;99.90;;;;;;5006479;28;20582;-51
2021/04/30 09:28:58;;;;;;;9.67;8.77;;;11.40;99.90;;;;;;5005818;28;20018;-51
2021/04/30 09:31:42;;;;;;;;;;;11.40;99.90;;;;;;5005902;28;20018;-53
2021/04/30 09:34:33;;;;;;;10.63;9.52;;;11.40;99.90;;;;;;5002271;28;19913;-54
2021/04/30 09:37:13;;;;;;;10.43;8.65;;;11.20;99.90;;;;;;5005253;28;20109;-55
2021/04/30 09:39:50;;;;;;;10.15;9.25;;;11.30;99.90;;;;;;5006168;28;20022;-57
2021/04/30 09:42:18;;;;;;;10.02;9.02;;;11.20;99.90;;;;;;5006576;28;20036;-57
2021/04/30 09:44:45;;;;;;;10.45;8.35;;;11.10;99.90;;;;;;5002703;28;20030;-51
2021/04/30 09:47:29;;;;;;;8.98;8.15;;;11.10;99.90;;;;;;5003664;28;20029;-52
2021/04/30 09:49:59;;;;;;;12.02;9.40;;;11.20;99.90;;;;;;5001274;28;20496;-57
2021/04/30 09:52:27;;;;;;;9.55;8.65;;;11.20;99.90;;;;;;5001864;28;20038;-55
2021/04/30 09:54:54;;;;;;;9.95;9.05;;;11.40;99.90;;;;;;4998671;28;20019;-56
2021/04/30 09:57:24;;;;;;;8.10;7.32;;;11.60;99.90;;;;;;4996898;28;20097;-57
2021/04/30 09:59:58;;;;;;;8.73;7.93;;;11.90;99.90;;;;;;5000074;28;20134;-53
2021/04/30 10:02:28;;;;;;;9.55;8.57;;;12.00;99.90;;;;;;5002723;28;20018;-56
2021/04/30 10:04:56;;;;;;;8.82;8.05;;;11.90;99.90;;;;;;5002670;28;20014;-54
2021/04/30 10:07:27;;;;;;;8.50;7.68;;;12.10;99.90;;;;;;5009022;28;20022;-58
2021/04/30 10:10:05;;;;;;;8.90;7.55;;;12.40;99.90;;;;;;5007070;28;20586;-56
2021/04/30 10:12:32;;;;;;;8.68;7.47;;;12.60;99.90;;;;;;5008158;28;20026;-54
2021/04/30 10:14:58;;;;;;;8.50;7.70;;;12.50;99.90;;;;;;5006674;28;20523;-55
2021/04/30 10:17:24;;;;;;;9.18;8.02;;;12.30;99.90;;;;;;5005600;28;20049;-51
2021/04/30 10:19:51;;;;;;;9.00;8.10;;;12.20;99.90;;;;;;5006055;28;20021;-53
2021/04/30 10:22:22;;;;;;;8.38;7.57;;;12.20;99.90;;;;;;5005460;28;20232;-52
2021/04/30 10:24:53;;;;;;;8.20;7.47;;;12.00;99.90;;;;;;5004445;28;20124;-53
2021/04/30 10:27:24;;;;;;;7.45;6.72;;;11.90;99.90;;;;;;5007108;28;20022;-51
2021/04/30 10:29:59;;;;;;;7.80;6.38;;;11.80;99.90;;;;;;5006909;28;20029;-50
2021/04/30 10:32:27;;;;;;;7.10;6.45;;;11.90;99.90;;;;;;5005621;28;20057;-50
2021/04/30 10:34:53;;;;;;;7.00;6.40;;;11.80;99.90;;;;;;5006155;28;20037;-55
2021/04/30 10:37:24;;;;;;;8.13;6.00;;;11.90;99.90;;;;;;5003084;28;20141;-52
2021/04/30 10:40:01;;;;;;;7.70;6.85;;;12.40;99.90;;;;;;5004579;28;20033;-52
2021/04/30 10:42:29;;;;;;;6.38;5.85;;;12.90;99.90;;;;;;5003389;28;20511;-50
2021/04/30 10:45:02;;;;;;;6.75;5.40;;;13.20;99.90;;;;;;5005749;28;20052;-53
2021/04/30 10:47:28;;;;;;;6.25;5.75;;;13.10;99.90;;;;;;5003880;28;20038;-58
2021/04/30 10:50:18;;;;;;;6.35;5.75;;;13.40;99.90;;;;;;5003521;28;20377;-52
2021/04/30 10:52:44;;;;;;;6.07;5.47;;;13.50;95.20;;;;;;5003217;28;20027;-51
2021/04/30 10:55:13;;;;;;;6.05;5.53;;;13.70;97.30;;;;;;5004358;28;20688;-50
2021/04/30 10:58:02;;;;;;;5.80;5.30;;;14.00;95.80;;;;;;5008079;28;20028;-55
2021/04/30 11:00:36;;;;;;;6.57;4.93;;;14.30;97.20;;;;;;5004364;28;20109;-48
2021/04/30 11:03:20;;;;;;;5.63;5.07;;;14.30;95.70;;;;;;5004851;28;20018;-50
2021/04/30 11:06:00;;;;;;;6.20;5.60;;;14.20;97.40;;;;;;5003257;28;20049;-49
2021/04/30 11:08:46;;;;;;;6.05;5.50;;;14.20;96.10;;;;;;5001227;28;20029;-49
2021/04/30 11:11:11;;;;;;;6.43;5.82;;;14.10;98.90;;;;;;5003164;28;20467;-50
2021/04/30 11:13:37;;;;;;;6.22;5.63;;;14.10;98.90;;;;;;5007319;28;20048;-51
2021/04/30 11:16:03;;;;;;;6.15;5.55;;;13.90;95.20;;;;;;5007280;28;20044;-47
2021/04/30 11:18:30;;;;;;;6.50;5.90;;;13.80;94.90;;;;;;5007101;28;20030;-53
2021/04/30 11:21:10;;;;;;;6.18;5.68;;;13.50;95.70;;;;;;5005524;28;20161;-52
2021/04/30 11:23:35;;;;;;;7.20;5.97;;;13.20;96.50;;;;;;5002269;28;20481;-52
2021/04/30 11:26:07;;;;;;;6.55;5.95;;;13.00;96.00;;;;;;5003864;28;20037;-53
2021/04/30 11:28:33;;;;;;;6.95;5.82;;;12.60;96.60;;;;;;5007051;28;20509;-54
2021/04/30 11:31:07;;;;;;;6.53;5.97;;;12.60;97.90;;;;;;5008425;28;20049;-53
2021/04/30 11:33:34;;;;;;;5.47;5.00;;;12.30;98.00;;;;;;5006266;28;20794;-53
2021/04/30 11:36:02;;;;;;;5.85;5.35;;;12.30;98.90;;;;;;5007924;28;20129;-54
2021/04/30 11:38:40;;;;;;;6.07;5.57;;;12.20;97.80;;;;;;5006797;28;20485;-52
2021/04/30 11:41:07;;;;;;;6.00;5.50;;;12.20;97.60;;;;;;5004500;28;20030;-51
2021/04/30 11:43:33;;;;;;;6.88;6.28;;;12.20;97.60;;;;;;5004169;28;20483;-49
2021/04/30 11:45:59;;;;;;;5.38;4.88;;;12.20;97.70;;;;;;5006913;28;20121;-50
2021/04/30 11:48:27;;;;;;;5.80;5.28;;;12.30;98.20;;;;;;5008230;28;20052;-49
2021/04/30 11:51:07;;;;;;;5.53;5.00;;;12.50;98.80;;;;;;5007918;28;20034;-54
2021/04/30 11:53:35;;;;;;;5.55;5.03;;;12.70;99.90;;;;;;5008230;28;20034;-50
2021/04/30 11:56:01;;;;;;;5.85;5.35;;;12.90;99.90;;;;;;5007132;28;20654;-52
2021/04/30 11:58:40;;;;;;;5.65;5.15;;;13.10;99.30;;;;;;5007221;28;20026;-53
2021/04/30 12:01:07;;;;;;;5.60;5.20;;;13.30;98.60;;;;;;5006940;28;20404;-52
2021/04/30 12:03:48;;;;;;;6.70;6.07;;;13.40;98.40;;;;;;5006557;28;20522;-51
2021/04/30 12:06:19;;;;;;;5.85;5.35;;;13.40;96.90;;;;;;5006457;28;20062;-54
2021/04/30 12:08:46;;;;;;;6.15;5.65;;;13.50;98.70;;;;;;5005956;28;20022;-49
2021/04/30 12:11:28;;;;;;;5.88;5.10;;;13.50;96.80;;;;;;5006102;28;20038;-55
2021/04/30 12:13:55;;;;;;;6.15;5.50;;;13.40;97.20;;;;;;5005152;28;20040;-51
2021/04/30 12:16:22;;;;;;;6.47;5.88;;;13.40;94.60;;;;;;5006930;28;20141;-50
2021/04/30 12:18:49;;;;;;;5.25;4.80;;;13.40;92.00;;;;;;5007716;28;20083;-52
2021/04/30 12:21:29;;;;;;;4.82;4.43;;;13.30;94.00;;;;;;5006048;28;20025;-56
2021/04/30 12:23:55;;;;;;;6.32;5.72;;;13.40;96.20;;;;;;5005482;28;20531;-51
2021/04/30 12:26:28;;;;;;;6.93;6.13;;;13.40;95.60;;;;;;5006982;28;20052;-52
2021/04/30 12:28:57;;;;;;;6.55;5.95;;;13.40;97.10;;;;;;5005950;28;20034;-54
2021/04/30 12:31:24;;;;;;;6.13;5.63;;;13.40;96.30;;;;;;5006017;28;20084;-54
2021/04/30 12:33:51;;;;;;;5.32;4.82;;;13.50;96.20;;;;;;5006444;28;20022;-52
2021/04/30 12:36:30;;;;;;;6.20;5.68;;;13.50;95.90;;;;;;5006105;28;20017;-49
2021/04/30 12:39:02;;;;;;;5.78;5.28;;;13.50;93.30;;;;;;5006917;28;20518;-53
2021/04/30 12:41:30;;;;;;;7.28;6.05;;;13.60;96.00;;;;;;5007131;28;20026;-52